createdAt,value
2019-03-19T00:02:10.339Z,90.80
2019-03-19T00:04:38.766Z,91.00
2019-03-19T00:07:07.224Z,90.80
2019-03-19T00:09:35.660Z,90.90
2019-03-19T00:12:04.039Z,90.90
2019-03-19T00:15:00.297Z,90.80
2019-03-19T00:27:14.385Z,91.10
2019-03-19T00:32:46.245Z,91.10
2019-03-19T00:35:14.651Z,91.10
2019-03-19T00:37:43.123Z,91.00
2019-03-19T00:40:13.046Z,91.20
2019-03-19T00:42:41.438Z,91.20
2019-03-19T00:45:12.374Z,91.20
2019-03-19T00:47:40.814Z,91.20
2019-03-19T00:50:13.105Z,91.10
2019-03-19T00:52:41.538Z,90.90
2019-03-19T00:55:10.054Z,91.20
2019-03-19T00:57:39.627Z,91.30
2019-03-19T01:00:13.807Z,91.30
2019-03-19T01:02:42.186Z,91.20
2019-03-19T01:05:10.622Z,91.30
2019-03-19T01:07:42.338Z,91.20
2019-03-19T01:10:12.233Z,91.30
2019-03-19T01:12:40.680Z,91.30
2019-03-19T01:15:15.748Z,91.20
2019-03-19T01:17:43.467Z,91.10
2019-03-19T01:20:18.083Z,91.10
2019-03-19T01:22:46.535Z,91.00
2019-03-19T01:25:14.917Z,91.00
2019-03-19T01:27:43.411Z,90.90
2019-03-19T01:30:13.973Z,90.90
2019-03-19T01:32:42.573Z,90.80
2019-03-19T01:35:10.989Z,90.90
2019-03-19T01:37:39.383Z,91.10
2019-03-19T01:40:12.590Z,91.10
2019-03-19T01:42:40.994Z,91.00
2019-03-19T01:45:11.580Z,90.90
2019-03-19T01:47:39.986Z,90.90
2019-03-19T01:50:11.186Z,90.80
2019-03-19T01:52:39.612Z,90.80
2019-03-19T01:55:13.039Z,91.00
2019-03-19T01:58:05.508Z,90.90
2019-03-19T02:00:33.913Z,90.90
2019-03-19T02:03:02.321Z,90.90
2019-03-19T02:05:30.727Z,91.10
2019-03-19T02:07:59.110Z,90.90
2019-03-19T02:10:27.564Z,90.90
2019-03-19T02:12:55.942Z,91.20
2019-03-19T02:15:24.354Z,91.30
2019-03-19T02:17:52.741Z,91.40
2019-03-19T02:20:21.154Z,91.20
2019-03-19T02:22:49.745Z,91.30
2019-03-19T02:25:18.114Z,91.00
2019-03-19T02:27:46.678Z,91.20
2019-03-19T02:30:16.052Z,91.20
2019-03-19T02:32:44.550Z,91.40
2019-03-19T02:35:12.945Z,91.80
2019-03-19T02:37:41.421Z,91.80
2019-03-19T02:40:12.113Z,91.60
2019-03-19T02:42:40.650Z,91.60
2019-03-19T02:45:12.987Z,91.80
2019-03-19T02:47:41.376Z,91.80
2019-03-19T02:50:12.512Z,91.90
2019-03-19T02:52:40.888Z,91.70
2019-03-19T02:55:12.073Z,91.70
2019-03-19T02:57:41.535Z,91.60
2019-03-19T03:00:12.240Z,91.50
2019-03-19T03:02:40.671Z,91.60
2019-03-19T03:05:19.865Z,91.60
2019-03-19T03:07:48.251Z,91.50
2019-03-19T03:10:16.711Z,91.60
2019-03-19T03:12:45.124Z,91.70
2019-03-19T03:15:16.199Z,91.80
2019-03-19T03:17:44.647Z,91.70
2019-03-19T03:20:16.584Z,92.00
2019-03-19T03:22:45.074Z,91.60
2019-03-19T03:25:14.490Z,91.60
2019-03-19T03:27:42.892Z,91.60
2019-03-19T03:30:22.834Z,91.80
2019-03-19T03:32:51.453Z,91.70
2019-03-19T03:35:19.849Z,91.90
2019-03-19T03:37:48.366Z,92.00
2019-03-19T03:40:19.031Z,91.80
2019-03-19T03:42:47.447Z,91.70
2019-03-19T03:45:18.178Z,91.80
2019-03-19T03:47:46.666Z,91.80
2019-03-19T03:50:18.436Z,91.90
2019-03-19T03:52:46.882Z,91.80
2019-03-19T03:55:20.172Z,91.70
2019-03-19T03:57:48.584Z,91.60
2019-03-19T04:00:19.253Z,91.70
2019-03-19T04:02:47.730Z,91.70
2019-03-19T04:05:16.157Z,91.80
2019-03-19T04:07:44.560Z,91.70
2019-03-19T04:10:17.690Z,91.70
2019-03-19T04:12:46.227Z,91.70
2019-03-19T04:15:17.273Z,91.50
2019-03-19T04:17:45.719Z,91.50
2019-03-19T04:20:15.758Z,91.50
2019-03-19T04:22:44.161Z,91.40
2019-03-19T04:25:12.674Z,91.50
2019-03-19T04:27:41.252Z,91.80
2019-03-19T04:30:12.702Z,91.80
2019-03-19T04:32:41.092Z,91.90
2019-03-19T04:35:09.871Z,91.90
2019-03-19T04:37:38.286Z,91.90
2019-03-19T04:40:11.580Z,91.80
2019-03-19T04:42:47.577Z,91.70
2019-03-19T04:45:16.879Z,91.70
2019-03-19T04:47:45.233Z,91.70
2019-03-19T04:50:14.797Z,91.80
2019-03-19T04:52:43.183Z,91.70
2019-03-19T04:55:16.286Z,91.70
2019-03-19T04:57:44.698Z,91.60
2019-03-19T05:00:14.387Z,91.60
2019-03-19T05:02:42.758Z,91.60
2019-03-19T05:05:12.210Z,91.60
2019-03-19T05:07:40.602Z,91.50
2019-03-19T05:10:17.053Z,91.50
2019-03-19T05:12:45.465Z,91.40
2019-03-19T05:15:14.018Z,91.40
2019-03-19T05:17:42.374Z,91.50
2019-03-19T05:20:15.778Z,91.50
2019-03-19T05:22:44.219Z,91.50
2019-03-19T05:25:12.606Z,91.90
2019-03-19T05:27:41.025Z,91.90
2019-03-19T05:30:20.107Z,91.80
2019-03-19T05:32:48.494Z,91.50
2019-03-19T05:35:16.902Z,91.70
2019-03-19T05:37:45.345Z,91.90
2019-03-19T05:40:17.388Z,91.90
2019-03-19T05:42:45.826Z,92.20
2019-03-19T05:45:16.980Z,91.90
2019-03-19T05:47:45.410Z,91.70
2019-03-19T05:50:17.182Z,91.60
2019-03-19T05:52:48.115Z,91.50
2019-03-19T05:55:15.626Z,91.50
2019-03-19T05:57:49.447Z,91.40
2019-03-19T06:00:15.451Z,91.30
2019-03-19T06:02:43.945Z,91.50
2019-03-19T06:05:12.637Z,91.40
2019-03-19T06:07:41.038Z,91.40
2019-03-19T06:10:14.820Z,91.40
2019-03-19T06:12:43.259Z,91.40
2019-03-19T06:15:16.390Z,91.60
2019-03-19T06:17:44.890Z,91.20
2019-03-19T06:20:14.933Z,91.20
2019-03-19T06:22:43.418Z,91.20
2019-03-19T06:25:12.566Z,91.20
2019-03-19T06:27:41.084Z,91.10
2019-03-19T06:30:13.042Z,91.20
2019-03-19T06:32:41.542Z,91.10
2019-03-19T06:35:11.195Z,91.20
2019-03-19T06:37:39.601Z,91.10
2019-03-19T06:40:19.845Z,91.30
2019-03-19T06:42:48.277Z,91.00
2019-03-19T06:45:17.503Z,91.00
2019-03-19T06:47:45.995Z,90.80
2019-03-19T06:50:15.577Z,90.80
2019-03-19T06:52:43.969Z,90.80
2019-03-19T06:55:17.101Z,90.70
2019-03-19T06:57:45.638Z,90.50
2019-03-19T07:00:23.562Z,90.60
2019-03-19T07:02:52.146Z,89.50
2019-03-19T07:05:20.893Z,89.00
2019-03-19T07:07:49.276Z,89.10
2019-03-19T07:10:19.946Z,89.80
2019-03-19T07:12:48.325Z,89.20
2019-03-19T07:15:17.758Z,89.40
2019-03-19T07:17:46.165Z,89.40
2019-03-19T07:20:19.041Z,89.60
2019-03-19T07:22:47.482Z,89.20
2019-03-19T07:25:15.910Z,87.50
2019-03-19T07:27:44.309Z,87.00
2019-03-19T07:30:21.634Z,87.10
2019-03-19T07:32:50.028Z,87.30
2019-03-19T07:35:18.427Z,84.70
2019-03-19T07:37:46.822Z,84.90
2019-03-19T07:40:15.879Z,83.00
2019-03-19T07:42:44.267Z,81.90
2019-03-19T07:45:14.925Z,81.90
2019-03-19T07:47:43.324Z,81.60
2019-03-19T07:50:14.100Z,81.40
2019-03-19T07:52:42.526Z,81.60
2019-03-19T07:55:10.919Z,80.00
2019-03-19T07:57:39.329Z,80.20
2019-03-19T08:00:16.933Z,79.10
2019-03-19T08:02:45.423Z,78.90
2019-03-19T08:05:13.862Z,78.10
2019-03-19T08:07:42.278Z,78.50
2019-03-19T08:10:15.835Z,78.30
2019-03-19T08:12:44.254Z,76.70
2019-03-19T08:15:19.593Z,75.10
2019-03-19T08:17:48.038Z,74.70
2019-03-19T08:20:17.398Z,74.20
2019-03-19T08:22:45.849Z,72.60
2019-03-19T08:25:14.949Z,72.10
2019-03-19T08:27:43.356Z,71.10
2019-03-19T08:30:16.719Z,72.70
2019-03-19T08:32:45.139Z,72.80
2019-03-19T08:35:13.537Z,72.80
2019-03-19T08:37:41.987Z,71.70
2019-03-19T08:40:17.206Z,71.30
2019-03-19T08:42:45.056Z,71.40
2019-03-19T08:45:19.748Z,73.30
2019-03-19T08:47:48.194Z,70.80
2019-03-19T08:50:19.850Z,67.90
2019-03-19T08:52:48.236Z,69.50
2019-03-19T08:55:16.655Z,66.70
2019-03-19T08:57:45.053Z,66.70
2019-03-19T09:00:24.406Z,68.30
2019-03-19T09:02:52.827Z,63.90
2019-03-19T09:05:21.225Z,63.40
2019-03-19T09:07:49.633Z,65.80
2019-03-19T09:10:20.092Z,65.10
2019-03-19T09:12:49.055Z,64.10
2019-03-19T09:15:28.386Z,63.80
2019-03-19T09:17:56.856Z,62.10
2019-03-19T09:20:25.235Z,63.10
2019-03-19T09:22:53.693Z,60.40
2019-03-19T09:25:22.071Z,60.30
2019-03-19T09:27:50.524Z,61.10
2019-03-19T09:30:22.801Z,61.60
2019-03-19T09:32:51.401Z,55.80
2019-03-19T09:35:19.775Z,57.60
2019-03-19T09:37:57.853Z,58.20
2019-03-19T09:40:20.266Z,55.70
2019-03-19T09:42:49.688Z,53.80
2019-03-19T09:45:18.246Z,57.30
2019-03-19T09:47:47.058Z,53.20
2019-03-19T09:50:26.074Z,55.20
2019-03-19T09:52:54.638Z,56.70
2019-03-19T09:55:23.017Z,59.00
2019-03-19T09:57:51.407Z,57.20
2019-03-19T10:00:20.529Z,56.90
2019-03-19T10:02:49.072Z,54.20
2019-03-19T10:05:17.478Z,56.10
2019-03-19T10:07:45.880Z,56.20
2019-03-19T10:10:18.583Z,56.50
2019-03-19T10:12:46.970Z,58.20
2019-03-19T10:15:15.449Z,58.50
2019-03-19T10:17:43.865Z,61.10
2019-03-19T10:20:14.735Z,56.20
2019-03-19T10:22:43.107Z,53.10
2019-03-19T10:25:12.857Z,53.40
2019-03-19T10:27:41.241Z,53.90
2019-03-19T10:30:22.976Z,56.40
2019-03-19T10:32:51.394Z,57.70
2019-03-19T10:35:19.865Z,59.80
2019-03-19T10:37:48.258Z,60.40
2019-03-19T10:40:18.111Z,61.10
2019-03-19T10:42:46.553Z,60.60
2019-03-19T10:45:19.161Z,58.60
2019-03-19T10:47:47.607Z,56.50
2019-03-19T10:50:25.653Z,50.70
2019-03-19T10:52:54.080Z,49.40
2019-03-19T10:55:22.508Z,47.60
2019-03-19T10:57:50.938Z,49.70
2019-03-19T11:00:24.156Z,53.20
2019-03-19T11:02:52.624Z,54.50
2019-03-19T11:05:21.887Z,56.60
2019-03-19T11:07:52.419Z,57.00
2019-03-19T11:10:22.038Z,55.90
2019-03-19T11:12:50.430Z,53.00
2019-03-19T11:15:26.227Z,49.20
2019-03-19T11:17:54.650Z,46.60
2019-03-19T11:20:23.083Z,44.00
2019-03-19T11:22:51.505Z,42.60
2019-03-19T11:25:30.021Z,41.50
2019-03-19T11:27:58.418Z,40.10
2019-03-19T11:30:28.741Z,39.40
2019-03-19T11:32:57.168Z,37.70
2019-03-19T11:35:25.602Z,38.60
2019-03-19T11:37:54.011Z,42.30
2019-03-19T11:40:22.427Z,39.10
2019-03-19T11:42:51.459Z,39.20
2019-03-19T11:45:20.812Z,43.40
2019-03-19T11:47:49.193Z,44.30
2019-03-19T11:50:24.557Z,46.20
2019-03-19T11:52:52.253Z,46.90
2019-03-19T11:55:20.701Z,45.90
2019-03-19T11:57:49.104Z,46.10
2019-03-19T12:00:42.421Z,42.50
2019-03-19T12:03:16.075Z,42.20
2019-03-19T12:05:40.858Z,38.80
2019-03-19T12:08:09.282Z,38.70
2019-03-19T12:10:37.665Z,37.30
2019-03-19T12:13:06.079Z,41.80
2019-03-19T12:15:34.473Z,39.50
2019-03-19T12:18:02.882Z,41.70
2019-03-19T12:20:34.432Z,42.40
2019-03-19T12:23:02.936Z,42.30
2019-03-19T12:25:31.610Z,39.40
2019-03-19T12:28:01.019Z,40.40
2019-03-19T12:30:29.410Z,40.70
2019-03-19T12:32:58.774Z,38.80
2019-03-19T12:35:27.192Z,38.90
2019-03-19T12:37:55.568Z,37.40
2019-03-19T12:40:35.873Z,35.20
2019-03-19T12:42:54.648Z,36.00
2019-03-19T12:45:24.078Z,36.80
2019-03-19T12:47:52.466Z,36.30
2019-03-19T12:50:24.604Z,34.80
2019-03-19T12:52:53.041Z,33.80
2019-03-19T12:55:21.502Z,35.80
2019-03-19T12:58:09.351Z,36.80
2019-03-19T13:00:37.778Z,36.00
2019-03-19T13:03:06.166Z,36.50
2019-03-19T13:05:34.620Z,36.30
2019-03-19T13:08:02.988Z,36.30
2019-03-19T13:10:31.444Z,36.10
2019-03-19T13:12:59.838Z,35.50
2019-03-19T13:15:28.270Z,35.40
2019-03-19T13:17:56.718Z,38.40
2019-03-19T13:20:25.137Z,36.40
2019-03-19T13:22:53.539Z,36.30
2019-03-19T13:25:23.017Z,36.00
2019-03-19T13:27:51.417Z,36.50
2019-03-19T13:30:25.480Z,36.90
2019-03-19T13:32:53.947Z,37.10
2019-03-19T13:35:22.318Z,39.00
2019-03-19T13:37:50.738Z,39.40
2019-03-19T13:40:19.491Z,40.90
2019-03-19T13:42:47.886Z,42.10
2019-03-19T13:45:22.801Z,42.00
2019-03-19T13:47:51.322Z,40.70
2019-03-19T13:50:21.356Z,39.60
2019-03-19T13:52:49.728Z,42.80
2019-03-19T13:55:22.092Z,45.60
2019-03-19T13:57:50.494Z,46.50
2019-03-19T14:00:19.968Z,47.40
2019-03-19T14:02:48.387Z,46.60
2019-03-19T14:05:17.512Z,46.30
2019-03-19T14:07:45.928Z,47.40
2019-03-19T14:10:18.373Z,47.10
2019-03-19T14:12:46.800Z,49.10
2019-03-19T14:15:22.859Z,48.70
2019-03-19T14:17:51.282Z,49.90
2019-03-19T14:20:20.658Z,50.00
2019-03-19T14:22:49.122Z,50.40
2019-03-19T14:25:18.277Z,50.00
2019-03-19T14:27:46.717Z,50.50
2019-03-19T14:30:22.007Z,50.80
2019-03-19T14:32:49.742Z,51.50
2019-03-19T14:35:18.198Z,50.90
2019-03-19T14:37:46.677Z,49.00
2019-03-19T14:40:20.166Z,49.80
2019-03-19T14:42:48.625Z,50.60
2019-03-19T14:45:17.574Z,50.60
2019-03-19T14:47:46.020Z,49.50
2019-03-19T14:50:19.250Z,50.30
2019-03-19T14:52:47.718Z,51.00
2019-03-19T14:55:16.117Z,52.30
2019-03-19T14:57:44.497Z,54.20
2019-03-19T15:00:19.900Z,53.40
2019-03-19T15:02:48.315Z,52.90
2019-03-19T15:05:16.724Z,52.70
2019-03-19T15:07:45.268Z,51.80
2019-03-19T15:10:22.335Z,49.60
2019-03-19T15:12:50.758Z,49.30
2019-03-19T15:15:20.191Z,48.70
2019-03-19T15:17:48.584Z,48.40
2019-03-19T15:20:19.501Z,47.30
2019-03-19T15:22:48.009Z,48.50
2019-03-19T15:25:16.399Z,47.80
2019-03-19T15:27:44.830Z,48.30
2019-03-19T15:30:19.448Z,47.70
2019-03-19T15:32:48.028Z,46.80
2019-03-19T15:35:16.412Z,45.50
2019-03-19T15:37:44.804Z,46.20
2019-03-19T15:40:16.740Z,47.40
2019-03-19T15:42:45.147Z,47.80
2019-03-19T15:45:15.991Z,48.70
2019-03-19T15:47:44.397Z,49.30
2019-03-19T15:50:15.063Z,48.70
2019-03-19T15:52:43.562Z,50.30
2019-03-19T15:55:15.294Z,48.20
2019-03-19T15:57:43.755Z,48.50
2019-03-19T16:00:19.191Z,47.20
2019-03-19T16:02:47.587Z,47.50
2019-03-19T16:05:16.046Z,47.70
2019-03-19T16:07:44.440Z,48.20
2019-03-19T16:10:14.069Z,50.30
2019-03-19T16:12:42.452Z,50.50
2019-03-19T16:15:15.296Z,50.70
2019-03-19T16:17:43.763Z,51.30
2019-03-19T16:20:18.145Z,52.60
2019-03-19T16:22:46.709Z,52.80
2019-03-19T16:25:15.095Z,52.50
2019-03-19T16:27:43.512Z,52.40
2019-03-19T16:30:17.855Z,56.00
2019-03-19T16:32:46.244Z,55.90
2019-03-19T16:35:14.709Z,54.30
2019-03-19T16:37:43.083Z,55.90
2019-03-19T16:40:17.255Z,55.40
2019-03-19T16:42:45.879Z,56.50
2019-03-19T16:45:14.285Z,55.00
2019-03-19T16:47:42.679Z,55.60
2019-03-19T16:50:16.976Z,53.70
2019-03-19T16:52:45.401Z,54.00
2019-03-19T16:55:15.179Z,53.40
2019-03-19T16:57:43.564Z,53.80
2019-03-19T17:00:19.625Z,53.20
2019-03-19T17:02:48.001Z,54.10
2019-03-19T17:05:17.476Z,54.40
2019-03-19T17:07:45.866Z,56.30
2019-03-19T17:10:16.202Z,56.20
2019-03-19T17:12:44.689Z,55.70
2019-03-19T17:15:14.938Z,56.90
2019-03-19T17:17:43.526Z,59.30
2019-03-19T17:20:13.405Z,60.50
2019-03-19T17:22:41.886Z,61.30
2019-03-19T17:25:12.769Z,63.20
2019-03-19T17:27:41.197Z,64.50
2019-03-19T17:30:17.257Z,66.70
2019-03-19T17:32:45.983Z,64.70
2019-03-19T17:35:15.993Z,66.50
2019-03-19T17:37:44.444Z,66.30
2019-03-19T17:40:14.013Z,66.80
2019-03-19T17:42:42.422Z,68.10
2019-03-19T17:45:13.145Z,68.40
2019-03-19T17:47:41.652Z,67.40
2019-03-19T17:50:16.374Z,68.40
2019-03-19T17:52:45.161Z,70.20
2019-03-19T17:55:13.623Z,69.10
2019-03-19T17:57:42.074Z,71.20
2019-03-19T18:00:14.584Z,71.30
2019-03-19T18:02:43.025Z,71.00
2019-03-19T18:05:11.518Z,71.70
2019-03-19T18:07:39.896Z,71.80
2019-03-19T18:10:12.503Z,72.70
2019-03-19T18:12:40.897Z,71.90
2019-03-19T18:15:13.814Z,73.20
2019-03-19T18:17:42.282Z,73.70
2019-03-19T18:20:15.601Z,73.90
2019-03-19T18:22:44.186Z,74.00
2019-03-19T18:25:14.980Z,74.60
2019-03-19T18:27:43.372Z,74.70
2019-03-19T18:30:20.719Z,74.20
2019-03-19T18:32:49.107Z,74.70
2019-03-19T18:35:17.554Z,76.10
2019-03-19T18:37:45.967Z,75.70
2019-03-19T18:40:15.485Z,75.30
2019-03-19T18:42:43.896Z,76.50
2019-03-19T18:45:13.818Z,76.20
2019-03-19T18:47:42.220Z,76.50
2019-03-19T18:50:18.836Z,77.20
2019-03-19T18:52:47.238Z,77.40
2019-03-19T18:55:15.653Z,77.20
2019-03-19T18:57:44.118Z,78.10
2019-03-19T19:00:22.617Z,77.80
2019-03-19T19:02:51.315Z,77.20
2019-03-19T19:05:21.893Z,77.80
2019-03-19T19:07:50.328Z,78.20
2019-03-19T19:10:21.068Z,78.50
2019-03-19T19:12:48.949Z,78.80
2019-03-19T19:15:25.208Z,78.60
2019-03-19T19:17:53.610Z,78.60
2019-03-19T19:20:23.022Z,78.90
2019-03-19T19:22:51.419Z,79.00
2019-03-19T19:25:26.518Z,79.20
2019-03-19T19:27:54.905Z,79.30
2019-03-19T19:30:29.385Z,79.40
2019-03-19T19:33:02.132Z,79.40
2019-03-19T19:35:27.822Z,79.50
2019-03-19T19:37:56.209Z,79.60
2019-03-19T19:40:24.646Z,79.80
2019-03-19T19:42:53.033Z,80.30
2019-03-19T19:45:21.581Z,79.70
2019-03-19T19:47:49.986Z,79.50
2019-03-19T19:50:22.661Z,78.70
2019-03-19T19:52:51.070Z,79.20
2019-03-19T19:55:19.463Z,79.30
2019-03-19T19:57:47.878Z,80.00
2019-03-19T20:00:22.174Z,76.60
2019-03-19T20:02:50.686Z,76.30
2019-03-19T20:05:19.064Z,75.40
2019-03-19T20:07:47.466Z,74.80
2019-03-19T20:10:26.963Z,74.90
2019-03-19T20:12:55.394Z,74.00
2019-03-19T20:15:23.779Z,73.50
2019-03-19T20:17:52.204Z,73.80
2019-03-19T20:20:25.390Z,73.60
2019-03-19T20:22:53.795Z,73.90
2019-03-19T20:25:22.258Z,74.40
2019-03-19T20:27:50.678Z,73.70
2019-03-19T20:30:22.572Z,75.10
2019-03-19T20:32:50.961Z,76.20
2019-03-19T20:35:19.380Z,77.00
2019-03-19T20:37:47.798Z,77.00
2019-03-19T20:40:16.774Z,76.50
2019-03-19T20:42:45.150Z,77.30
2019-03-19T20:45:15.232Z,76.70
2019-03-19T20:47:43.611Z,75.90
2019-03-19T20:50:14.912Z,76.00
2019-03-19T20:52:43.325Z,75.90
2019-03-19T20:55:11.717Z,75.90
2019-03-19T20:57:40.176Z,75.80
2019-03-19T21:00:11.823Z,75.20
2019-03-19T21:02:40.282Z,76.30
2019-03-19T21:05:08.646Z,75.20
2019-03-19T21:07:37.094Z,74.50
2019-03-19T21:10:20.942Z,74.20
2019-03-19T21:12:49.342Z,73.90
2019-03-19T21:15:25.184Z,74.70
2019-03-19T21:17:53.594Z,74.30
2019-03-19T21:20:21.979Z,73.50
2019-03-19T21:22:50.533Z,73.10
2019-03-19T21:25:18.940Z,73.40
2019-03-19T21:27:47.369Z,73.60
2019-03-19T21:30:19.123Z,73.70
2019-03-19T21:32:47.524Z,73.30
2019-03-19T21:35:20.321Z,73.20
2019-03-19T21:37:48.977Z,73.00
2019-03-19T21:40:17.399Z,73.70
2019-03-19T21:42:45.782Z,73.90
2019-03-19T21:45:19.133Z,73.90
2019-03-19T21:47:47.565Z,74.70
2019-03-19T21:50:26.949Z,74.60
2019-03-19T21:52:54.074Z,74.20
2019-03-19T21:55:22.487Z,74.00
2019-03-19T21:57:50.918Z,74.00
2019-03-19T22:00:22.569Z,74.30
2019-03-19T22:02:51.010Z,74.70
2019-03-19T22:05:19.496Z,75.40
2019-03-19T22:07:47.874Z,75.40
2019-03-19T22:10:20.117Z,75.00
2019-03-19T22:12:49.512Z,74.90
2019-03-19T22:15:25.111Z,75.10
2019-03-19T22:17:53.637Z,75.70
2019-03-19T22:20:22.994Z,76.00
2019-03-19T22:22:51.438Z,76.30
2019-03-19T22:25:19.844Z,76.70
2019-03-19T22:27:48.255Z,76.90
2019-03-19T22:30:22.635Z,77.50
2019-03-19T22:32:51.045Z,77.40
2019-03-19T22:35:19.455Z,77.20
2019-03-19T22:37:47.856Z,77.00
2019-03-19T22:40:19.329Z,77.00
2019-03-19T22:42:47.744Z,77.00
2019-03-19T22:45:19.551Z,77.20
2019-03-19T22:47:48.122Z,77.00
2019-03-19T22:50:17.456Z,76.30
2019-03-19T22:52:46.005Z,75.50
2019-03-19T22:55:15.126Z,75.70
2019-03-19T22:57:43.545Z,76.20
2019-03-19T23:00:36.890Z,75.20
2019-03-19T23:03:05.914Z,76.00
2019-03-19T23:05:34.370Z,75.50
2019-03-19T23:08:02.801Z,75.50
2019-03-19T23:11:25.749Z,75.30
2019-03-19T23:13:54.172Z,75.20
2019-03-19T23:16:22.714Z,75.00
2019-03-19T23:18:51.101Z,74.70
2019-03-19T23:21:19.513Z,74.40
2019-03-19T23:23:47.930Z,74.50
2019-03-19T23:26:16.340Z,74.60
2019-03-19T23:28:44.774Z,74.60
2019-03-19T23:31:13.207Z,74.80
2019-03-19T23:33:41.586Z,74.80
2019-03-19T23:36:10.035Z,74.90
2019-03-19T23:38:38.454Z,74.90
2019-03-19T23:41:06.838Z,74.90
2019-03-19T23:43:35.248Z,74.90
2019-03-19T23:46:03.698Z,75.30
2019-03-19T23:48:32.087Z,75.30
2019-03-19T23:51:00.510Z,75.40
2019-03-19T23:53:28.973Z,75.50
2019-03-19T23:55:57.346Z,75.70
2019-03-19T23:58:25.757Z,76.00
